createdAt,value
2019-01-25T00:00:51.216Z,53.42
2019-01-25T00:03:20.434Z,57.83
2019-01-25T00:05:50.150Z,52.80
2019-01-25T00:08:21.780Z,52.60
2019-01-25T00:10:50.784Z,55.38
2019-01-25T00:13:20.066Z,54.20
2019-01-25T00:15:49.322Z,56.45
2019-01-25T00:18:19.400Z,51.48
2019-01-25T00:20:48.800Z,50.33
2019-01-25T00:23:18.408Z,54.58
2019-01-25T00:26:09.580Z,63.15
2019-01-25T00:28:42.667Z,56.85
2019-01-25T00:31:16.195Z,46.35
2019-01-25T00:33:45.174Z,50.50
2019-01-25T00:36:52.175Z,50.35
2019-01-25T00:39:21.440Z,56.25
2019-01-25T00:41:51.099Z,58.75
2019-01-25T00:44:20.418Z,49.05
2019-01-25T00:48:04.762Z,60.35
2019-01-25T00:50:37.328Z,51.50
2019-01-25T00:53:07.104Z,54.70
2019-01-25T00:55:36.844Z,48.60
2019-01-25T00:58:06.494Z,55.50
2019-01-25T01:00:36.224Z,54.23
2019-01-25T01:03:14.216Z,57.25
2019-01-25T01:05:43.504Z,53.35
2019-01-25T01:08:13.242Z,52.05
2019-01-25T01:10:42.519Z,49.90
2019-01-25T01:13:12.459Z,50.98
2019-01-25T01:19:02.659Z,55.95
2019-01-25T01:21:32.506Z,54.35
2019-01-25T01:24:26.046Z,48.98
2019-01-25T01:27:05.009Z,50.05
2019-01-25T01:29:35.115Z,46.73
2019-01-25T01:32:22.070Z,48.45
2019-01-25T01:35:13.752Z,49.30
2019-01-25T01:37:43.506Z,52.05
2019-01-25T01:40:41.455Z,54.05
2019-01-25T01:43:11.501Z,45.15
2019-01-25T01:45:49.810Z,51.50
2019-01-25T01:48:19.008Z,51.70
2019-01-25T01:50:48.437Z,57.13
2019-01-25T01:53:18.800Z,45.00
2019-01-25T01:55:48.217Z,48.92
2019-01-25T01:58:17.895Z,46.92
2019-01-25T02:00:47.066Z,51.68
2019-01-25T02:03:16.738Z,48.95
2019-01-25T02:05:46.455Z,48.92
2019-01-25T02:08:20.797Z,46.77
2019-01-25T02:10:59.413Z,47.85
2019-01-25T02:13:29.559Z,48.78
2019-01-25T02:15:58.892Z,51.42
2019-01-25T02:18:28.279Z,44.35
2019-01-25T02:20:58.295Z,51.55
2019-01-25T02:23:27.848Z,50.50
2019-01-25T02:25:57.145Z,53.63
2019-01-25T02:28:26.358Z,53.48
2019-01-25T02:30:55.629Z,49.55
2019-01-25T02:33:25.341Z,55.88
2019-01-25T02:35:54.606Z,49.40
2019-01-25T02:38:49.007Z,57.80
2019-01-25T02:41:18.500Z,48.80
2019-01-25T02:43:48.073Z,58.83
2019-01-25T02:46:17.395Z,49.00
2019-01-25T02:48:47.139Z,50.17
2019-01-25T02:51:16.951Z,47.93
2019-01-25T02:53:46.225Z,49.42
2019-01-25T02:56:19.125Z,48.87
2019-01-25T02:58:48.513Z,58.35
2019-01-25T03:01:21.101Z,51.85
2019-01-25T03:03:50.759Z,55.65
2019-01-25T03:06:20.111Z,53.28
2019-01-25T03:08:49.306Z,52.58
2019-01-25T03:11:19.515Z,56.73
2019-01-25T03:13:48.516Z,50.55
2019-01-25T03:16:22.724Z,47.00
2019-01-25T03:18:53.338Z,58.65
2019-01-25T03:21:23.195Z,53.85
2019-01-25T03:23:52.686Z,47.35
2019-01-25T03:26:24.398Z,53.83
2019-01-25T03:28:54.255Z,50.50
2019-01-25T03:31:24.006Z,57.65
2019-01-25T03:33:53.340Z,45.33
2019-01-25T03:36:22.893Z,55.15
2019-01-25T03:38:52.279Z,43.48
2019-01-25T03:41:21.592Z,52.30
2019-01-25T03:43:53.225Z,49.42
2019-01-25T03:46:22.627Z,50.50
2019-01-25T03:48:52.239Z,49.27
2019-01-25T03:51:24.133Z,51.23
2019-01-25T03:53:53.993Z,51.02
2019-01-25T03:56:23.636Z,51.35
2019-01-25T03:58:53.223Z,48.75
2019-01-25T04:01:22.820Z,48.45
2019-01-25T04:03:55.704Z,52.70
2019-01-25T04:06:24.933Z,45.52
2019-01-25T04:08:54.314Z,51.08
2019-01-25T04:11:23.766Z,53.60
2019-01-25T04:13:53.062Z,55.30
2019-01-25T04:16:27.775Z,49.15
2019-01-25T04:18:59.598Z,51.45
2019-01-25T04:21:29.022Z,53.70
2019-01-25T04:23:58.609Z,49.60
2019-01-25T04:26:30.878Z,51.08
2019-01-25T04:29:00.586Z,50.55
2019-01-25T04:31:29.862Z,50.08
2019-01-25T04:33:59.194Z,51.10
2019-01-25T04:36:28.619Z,52.50
2019-01-25T04:38:57.890Z,54.60
2019-01-25T04:41:27.216Z,61.65
2019-01-25T04:43:56.375Z,54.70
2019-01-25T04:46:25.638Z,53.80
2019-01-25T04:48:54.571Z,63.05
2019-01-25T04:51:24.082Z,58.63
2019-01-25T04:53:53.472Z,63.38
2019-01-25T04:56:22.362Z,58.68
2019-01-25T04:58:51.713Z,64.58
2019-01-25T05:01:20.814Z,58.23
2019-01-25T05:03:52.850Z,59.25
2019-01-25T05:06:22.756Z,56.68
2019-01-25T05:08:52.385Z,59.00
2019-01-25T05:11:28.195Z,56.98
2019-01-25T05:13:59.411Z,59.15
2019-01-25T05:16:28.825Z,65.65
2019-01-25T05:18:58.251Z,60.23
2019-01-25T05:21:27.847Z,58.02
2019-01-25T05:23:57.639Z,57.53
2019-01-25T05:26:29.944Z,61.85
2019-01-25T05:29:00.618Z,59.35
2019-01-25T05:31:30.571Z,59.48
2019-01-25T05:34:00.263Z,58.85
2019-01-25T05:36:29.673Z,61.63
2019-01-25T05:39:02.349Z,60.15
2019-01-25T05:41:32.251Z,54.55
2019-01-25T05:44:02.088Z,58.55
2019-01-25T05:46:31.666Z,54.65
2019-01-25T05:49:01.218Z,52.83
2019-01-25T05:51:33.735Z,55.92
2019-01-25T05:54:01.723Z,63.90
2019-01-25T05:56:31.399Z,60.78
2019-01-25T05:59:01.003Z,59.75
2019-01-25T06:01:51.615Z,56.30
2019-01-25T06:04:21.256Z,58.73
2019-01-25T06:06:50.774Z,60.48
2019-01-25T06:09:23.359Z,57.40
2019-01-25T06:11:52.629Z,57.60
2019-01-25T06:14:21.728Z,58.28
2019-01-25T06:16:51.081Z,60.10
2019-01-25T06:19:20.141Z,64.07
2019-01-25T06:21:49.841Z,62.67
2019-01-25T06:24:19.839Z,63.80
2019-01-25T06:26:49.481Z,58.60
2019-01-25T06:29:18.664Z,58.48
2019-01-25T06:31:47.831Z,59.18
2019-01-25T06:34:16.877Z,59.10
2019-01-25T06:36:46.370Z,59.45
2019-01-25T06:39:23.425Z,58.50
2019-01-25T06:41:52.719Z,60.85
2019-01-25T06:44:22.106Z,65.05
2019-01-25T06:46:51.453Z,68.02
2019-01-25T06:49:20.561Z,64.00
2019-01-25T06:51:49.483Z,63.15
2019-01-25T06:54:18.479Z,61.53
2019-01-25T06:56:47.311Z,60.17
2019-01-25T07:00:34.407Z,61.40
2019-01-25T07:03:03.389Z,65.40
2019-01-25T07:05:32.311Z,59.05
2019-01-25T07:08:01.316Z,63.17
2019-01-25T07:10:30.267Z,64.80
2019-01-25T07:12:59.303Z,62.17
2019-01-25T07:15:28.397Z,63.48
2019-01-25T07:17:57.549Z,60.63
2019-01-25T07:20:27.021Z,65.60
2019-01-25T07:22:56.297Z,61.20
2019-01-25T07:25:25.323Z,60.20
2019-01-25T07:27:54.488Z,58.95
2019-01-25T07:30:24.577Z,55.25
2019-01-25T07:32:53.862Z,69.10
2019-01-25T07:35:23.108Z,54.35
2019-01-25T07:37:52.275Z,57.00
2019-01-25T07:40:21.793Z,62.23
2019-01-25T07:42:51.545Z,54.25
2019-01-25T07:45:20.616Z,58.63
2019-01-25T07:48:11.919Z,58.05
2019-01-25T07:50:41.308Z,56.83
2019-01-25T07:53:10.714Z,56.68
2019-01-25T07:55:40.026Z,58.25
2019-01-25T07:58:09.352Z,60.03
2019-01-25T08:00:38.534Z,52.73
2019-01-25T08:03:07.853Z,56.13
2019-01-25T08:05:37.064Z,52.20
2019-01-25T08:08:06.356Z,58.38
2019-01-25T08:10:35.787Z,53.05
2019-01-25T08:13:05.057Z,56.33
2019-01-25T08:15:34.219Z,57.05
2019-01-25T08:18:03.463Z,63.40
2019-01-25T08:20:32.688Z,55.80
2019-01-25T08:23:01.843Z,57.30
2019-01-25T08:25:31.078Z,59.13
2019-01-25T08:28:03.794Z,57.85
2019-01-25T08:30:33.042Z,59.83
2019-01-25T08:33:02.400Z,57.27
2019-01-25T08:35:31.698Z,60.43
2019-01-25T08:38:01.129Z,58.83
2019-01-25T08:40:33.853Z,53.20
2019-01-25T08:43:03.036Z,56.50
2019-01-25T08:45:32.478Z,60.12
2019-01-25T08:48:01.727Z,55.17
2019-01-25T08:50:31.036Z,56.30
2019-01-25T08:52:59.981Z,60.67
2019-01-25T08:55:29.102Z,56.18
2019-01-25T08:57:58.405Z,52.05
2019-01-25T09:00:27.590Z,50.03
2019-01-25T09:02:56.963Z,55.00
2019-01-25T09:05:27.091Z,49.70
2019-01-25T09:07:56.514Z,48.00
2019-01-25T09:10:25.899Z,47.70
2019-01-25T09:12:55.038Z,59.10
2019-01-25T09:15:31.143Z,51.88
2019-01-25T09:18:00.822Z,51.28
2019-01-25T09:20:30.378Z,44.53
2019-01-25T09:22:59.902Z,54.08
2019-01-25T09:25:29.508Z,44.63
2019-01-25T09:27:58.891Z,50.15
2019-01-25T09:30:28.304Z,46.90
2019-01-25T09:32:57.649Z,52.38
2019-01-25T09:35:26.968Z,42.48
2019-01-25T09:37:56.142Z,43.40
2019-01-25T09:40:26.372Z,50.23
2019-01-25T09:42:55.724Z,45.55
2019-01-25T09:45:25.192Z,41.73
2019-01-25T09:47:54.218Z,43.20
2019-01-25T09:50:23.669Z,48.90
2019-01-25T09:52:53.183Z,45.20
2019-01-25T09:55:24.462Z,42.93
2019-01-25T09:57:54.682Z,43.77
2019-01-25T10:00:36.228Z,46.40
2019-01-25T10:03:05.780Z,49.63
2019-01-25T10:05:35.195Z,43.73
2019-01-25T10:08:04.633Z,45.57
2019-01-25T10:10:33.919Z,47.23
2019-01-25T10:13:03.031Z,49.00
2019-01-25T10:15:32.334Z,41.47
2019-01-25T10:18:01.467Z,41.73
2019-01-25T10:20:30.720Z,48.30
2019-01-25T10:23:02.303Z,43.20
2019-01-25T10:25:31.896Z,44.77
2019-01-25T10:28:00.803Z,45.67
2019-01-25T10:30:30.689Z,41.95
2019-01-25T10:33:00.557Z,41.88
2019-01-25T10:35:29.726Z,43.80
2019-01-25T10:37:58.897Z,41.73
2019-01-25T10:40:28.113Z,41.23
2019-01-25T10:42:57.297Z,45.12
2019-01-25T10:45:33.447Z,41.73
2019-01-25T10:48:02.449Z,43.42
2019-01-25T10:50:31.798Z,41.08
2019-01-25T10:53:00.948Z,43.33
2019-01-25T10:55:31.917Z,41.00
2019-01-25T10:58:01.273Z,42.70
2019-01-25T11:00:30.483Z,39.95
2019-01-25T11:02:59.813Z,39.27
2019-01-25T11:05:29.468Z,36.43
2019-01-25T11:07:58.903Z,37.70
2019-01-25T11:10:27.882Z,33.13
2019-01-25T11:13:00.999Z,30.93
2019-01-25T11:15:28.010Z,35.07
2019-01-25T11:17:57.305Z,36.37
2019-01-25T11:20:26.543Z,33.05
2019-01-25T11:22:59.123Z,34.55
2019-01-25T11:25:33.311Z,32.05
2019-01-25T11:28:02.675Z,31.93
2019-01-25T11:30:31.995Z,38.08
2019-01-25T11:33:01.291Z,32.75
2019-01-25T11:35:30.849Z,30.17
2019-01-25T11:38:00.039Z,35.00
2019-01-25T11:40:31.475Z,37.60
2019-01-25T11:43:08.163Z,31.60
2019-01-25T11:45:31.668Z,36.58
2019-01-25T11:48:01.076Z,35.98
2019-01-25T11:50:30.184Z,37.93
2019-01-25T11:52:59.338Z,36.63
2019-01-25T11:55:28.311Z,38.42
2019-01-25T11:57:57.208Z,38.78
2019-01-25T12:00:27.758Z,42.60
2019-01-25T12:02:56.905Z,44.27
2019-01-25T12:05:26.124Z,42.23
2019-01-25T12:07:55.347Z,38.75
2019-01-25T12:10:26.791Z,37.38
2019-01-25T12:12:58.214Z,36.45
2019-01-25T12:15:27.285Z,36.95
2019-01-25T12:17:56.296Z,38.30
2019-01-25T12:20:27.489Z,40.65
2019-01-25T12:22:56.834Z,43.95
2019-01-25T12:25:26.260Z,37.80
2019-01-25T12:27:55.719Z,38.45
2019-01-25T12:30:30.461Z,40.43
2019-01-25T12:32:59.828Z,42.67
2019-01-25T12:35:30.854Z,37.48
2019-01-25T12:37:59.916Z,41.83
2019-01-25T12:40:29.252Z,43.73
2019-01-25T12:42:58.209Z,42.80
2019-01-25T12:45:27.825Z,40.60
2019-01-25T12:47:57.111Z,41.88
2019-01-25T12:50:35.562Z,48.68
2019-01-25T12:53:04.925Z,48.70
2019-01-25T12:55:34.092Z,49.98
2019-01-25T12:58:03.042Z,50.00
2019-01-25T13:00:32.092Z,45.43
2019-01-25T13:03:01.245Z,45.28
2019-01-25T13:05:30.360Z,50.98
2019-01-25T13:07:59.262Z,41.75
2019-01-25T13:10:28.360Z,45.33
2019-01-25T13:12:57.404Z,43.70
2019-01-25T13:15:26.482Z,44.20
2019-01-25T13:17:55.602Z,44.75
2019-01-25T13:20:26.246Z,42.53
2019-01-25T13:22:55.598Z,42.10
2019-01-25T13:25:24.923Z,54.60
2019-01-25T13:27:54.198Z,47.10
2019-01-25T13:30:25.626Z,46.30
2019-01-25T13:33:04.112Z,46.75
2019-01-25T13:35:35.604Z,46.08
2019-01-25T13:38:04.712Z,45.45
2019-01-25T13:40:34.330Z,50.48
2019-01-25T13:43:03.626Z,51.13
2019-01-25T13:45:32.918Z,53.30
2019-01-25T13:48:02.107Z,55.90
2019-01-25T13:50:31.151Z,47.20
2019-01-25T13:53:00.682Z,42.83
2019-01-25T13:55:30.279Z,46.40
2019-01-25T13:57:59.336Z,51.02
2019-01-25T14:00:33.548Z,48.08
2019-01-25T14:03:02.873Z,42.80
2019-01-25T14:05:32.315Z,45.25
2019-01-25T14:08:01.389Z,48.02
2019-01-25T14:10:32.734Z,50.38
2019-01-25T14:13:01.952Z,42.95
2019-01-25T14:15:31.404Z,54.67
2019-01-25T14:18:00.791Z,54.67
2019-01-25T14:20:31.156Z,49.45
2019-01-25T14:23:00.871Z,46.08
2019-01-25T14:25:30.404Z,50.20
2019-01-25T14:27:59.869Z,49.88
2019-01-25T14:30:34.929Z,52.20
2019-01-25T14:33:04.597Z,51.28
2019-01-25T14:35:34.015Z,46.08
2019-01-25T14:38:03.085Z,50.48
2019-01-25T14:40:33.306Z,49.75
2019-01-25T14:43:02.366Z,55.95
2019-01-25T14:45:31.538Z,51.65
2019-01-25T14:48:00.682Z,52.85
2019-01-25T14:50:30.474Z,50.00
2019-01-25T14:53:09.009Z,47.25
2019-01-25T14:55:47.816Z,54.90
2019-01-25T14:58:17.671Z,55.05
2019-01-25T15:00:46.920Z,57.45
2019-01-25T15:03:16.013Z,54.77
2019-01-25T15:05:45.063Z,52.93
2019-01-25T15:08:25.341Z,54.58
2019-01-25T15:10:54.298Z,54.60
2019-01-25T15:13:23.243Z,58.08
2019-01-25T15:15:52.365Z,60.90
2019-01-25T15:18:21.371Z,53.33
2019-01-25T15:20:50.960Z,60.10
2019-01-25T15:23:20.194Z,57.65
2019-01-25T15:25:49.188Z,45.38
2019-01-25T15:28:21.971Z,55.60
2019-01-25T15:30:51.397Z,50.30
2019-01-25T15:33:20.651Z,53.92
2019-01-25T15:35:49.686Z,48.73
2019-01-25T15:38:18.600Z,52.65
2019-01-25T15:40:48.131Z,53.55
2019-01-25T15:43:17.306Z,48.45
2019-01-25T15:45:46.373Z,52.58
2019-01-25T15:48:15.488Z,55.92
2019-01-25T15:50:44.384Z,49.67
2019-01-25T15:53:13.427Z,51.15
2019-01-25T15:55:42.455Z,47.65
2019-01-25T15:58:11.475Z,47.35
2019-01-25T16:00:40.521Z,77.05
2019-01-25T16:03:09.610Z,48.15
2019-01-25T16:05:38.638Z,47.70
2019-01-25T16:08:07.815Z,50.35
2019-01-25T16:10:36.960Z,52.70
2019-01-25T16:13:06.034Z,51.73
2019-01-25T16:15:35.906Z,57.05
2019-01-25T16:18:05.067Z,51.10
2019-01-25T16:20:34.695Z,47.45
2019-01-25T16:23:03.650Z,50.70
2019-01-25T16:25:34.568Z,56.30
2019-01-25T16:28:03.652Z,51.60
2019-01-25T16:30:35.035Z,54.98
2019-01-25T16:33:04.210Z,57.40
2019-01-25T16:35:33.297Z,47.88
2019-01-25T16:38:02.882Z,58.83
2019-01-25T16:40:32.350Z,60.52
2019-01-25T16:43:01.356Z,55.10
2019-01-25T16:45:35.812Z,56.15
2019-01-25T16:48:05.231Z,57.98
2019-01-25T16:50:34.496Z,57.10
2019-01-25T16:53:03.834Z,62.98
2019-01-25T16:55:32.852Z,53.02
2019-01-25T16:58:12.630Z,62.83
2019-01-25T17:00:44.003Z,55.78
2019-01-25T17:03:13.250Z,61.58
2019-01-25T17:05:42.374Z,59.53
2019-01-25T17:08:11.440Z,57.75
2019-01-25T17:10:41.148Z,63.20
2019-01-25T17:13:10.323Z,65.67
2019-01-25T17:15:39.550Z,58.92
2019-01-25T17:18:08.792Z,60.63
2019-01-25T17:20:37.916Z,56.88
2019-01-25T17:23:07.057Z,54.03
2019-01-25T17:25:36.139Z,58.92
2019-01-25T17:28:06.698Z,60.60
2019-01-25T17:30:36.534Z,66.35
2019-01-25T17:33:05.577Z,76.50
2019-01-25T17:35:34.686Z,60.90
2019-01-25T17:38:04.751Z,62.75
2019-01-25T17:40:46.549Z,62.83
2019-01-25T17:43:10.318Z,62.98
2019-01-25T17:45:39.436Z,63.33
2019-01-25T17:48:08.617Z,61.55
2019-01-25T17:50:37.647Z,62.13
2019-01-25T17:53:06.710Z,59.18
2019-01-25T17:55:35.758Z,58.75
2019-01-25T17:58:08.233Z,59.73
2019-01-25T18:00:54.920Z,60.73
2019-01-25T18:03:24.142Z,62.50
2019-01-25T18:05:53.158Z,62.80
2019-01-25T18:08:22.744Z,65.28
2019-01-25T18:10:51.900Z,56.42
2019-01-25T18:13:20.981Z,58.05
2019-01-25T18:15:49.934Z,67.08
2019-01-25T18:18:18.946Z,61.98
2019-01-25T18:20:47.940Z,64.90
2019-01-25T18:23:16.926Z,69.65
2019-01-25T18:26:12.036Z,59.55
2019-01-25T18:29:01.716Z,73.72
2019-01-25T18:31:31.894Z,74.40
2019-01-25T18:34:00.903Z,62.93
2019-01-25T18:36:29.962Z,63.48
2019-01-25T18:38:58.878Z,60.58
2019-01-25T18:41:27.820Z,58.63
2019-01-25T18:43:56.858Z,65.45
2019-01-25T18:46:25.885Z,64.25
2019-01-25T18:48:55.116Z,65.95
2019-01-25T18:51:24.476Z,63.42
2019-01-25T18:53:54.250Z,60.98
2019-01-25T18:56:25.360Z,61.98
2019-01-25T18:58:54.465Z,62.03
2019-01-25T19:01:23.519Z,62.48
2019-01-25T19:03:52.795Z,70.12
2019-01-25T19:06:22.159Z,64.47
2019-01-25T19:08:51.365Z,63.20
2019-01-25T19:11:20.620Z,70.75
2019-01-25T19:13:50.845Z,62.90
2019-01-25T19:16:20.055Z,69.90
2019-01-25T19:18:49.106Z,66.50
2019-01-25T19:21:18.731Z,61.42
2019-01-25T19:23:47.909Z,64.32
2019-01-25T19:26:17.113Z,70.95
2019-01-25T19:28:46.411Z,63.20
2019-01-25T19:31:15.511Z,62.80
2019-01-25T19:33:44.631Z,55.25
2019-01-25T19:36:13.771Z,64.10
2019-01-25T19:38:42.801Z,54.35
2019-01-25T19:41:11.944Z,53.80
2019-01-25T19:43:41.063Z,54.70
2019-01-25T19:46:10.181Z,52.33
2019-01-25T19:48:39.151Z,39.38
2019-01-25T19:51:08.098Z,51.50
2019-01-25T19:53:37.097Z,41.98
2019-01-25T19:56:06.493Z,40.30
2019-01-25T19:58:35.428Z,40.00
2019-01-25T20:01:04.517Z,41.45
2019-01-25T20:03:33.613Z,41.08
2019-01-25T20:06:02.707Z,39.60
2019-01-25T20:08:31.833Z,41.70
2019-01-25T20:11:00.731Z,39.42
2019-01-25T20:13:29.619Z,45.48
2019-01-25T20:15:58.487Z,38.45
2019-01-25T20:18:27.463Z,36.63
2019-01-25T20:20:56.640Z,39.75
2019-01-25T20:23:25.672Z,38.65
2019-01-25T20:25:54.653Z,36.00
2019-01-25T20:28:23.581Z,36.28
2019-01-25T20:30:52.577Z,36.23
2019-01-25T20:33:21.442Z,38.90
2019-01-25T20:35:50.459Z,35.63
2019-01-25T20:38:19.577Z,33.28
2019-01-25T20:40:48.714Z,33.78
2019-01-25T20:43:17.588Z,37.80
2019-01-25T20:45:46.604Z,30.88
2019-01-25T20:48:15.571Z,37.75
2019-01-25T20:50:44.527Z,36.58
2019-01-25T20:53:13.804Z,40.58
2019-01-25T20:55:42.923Z,35.03
2019-01-25T20:58:12.067Z,38.05
2019-01-25T21:00:41.194Z,36.98
2019-01-25T21:03:12.476Z,39.40
2019-01-25T21:05:41.589Z,39.73
2019-01-25T21:08:10.579Z,34.00
2019-01-25T21:10:39.621Z,31.25
2019-01-25T21:13:08.593Z,36.42
2019-01-25T21:15:37.557Z,44.58
2019-01-25T21:18:06.743Z,35.25
2019-01-25T21:20:38.182Z,36.40
2019-01-25T21:23:07.607Z,35.00
2019-01-25T21:25:36.765Z,35.80
2019-01-25T21:28:05.913Z,33.85
2019-01-25T21:30:35.312Z,31.52
2019-01-25T21:33:04.574Z,35.52
2019-01-25T21:35:33.791Z,31.02
2019-01-25T21:38:02.890Z,37.13
2019-01-25T21:40:32.819Z,34.27
2019-01-25T21:43:01.886Z,38.08
2019-01-25T21:45:32.824Z,34.08
2019-01-25T21:48:02.855Z,32.80
2019-01-25T21:50:34.026Z,39.45
2019-01-25T21:53:03.282Z,35.52
2019-01-25T21:55:32.550Z,38.48
2019-01-25T21:58:05.398Z,35.80
2019-01-25T22:00:32.714Z,38.83
2019-01-25T22:03:01.656Z,35.13
2019-01-25T22:05:30.771Z,34.90
2019-01-25T22:07:59.776Z,34.40
2019-01-25T22:10:37.640Z,40.03
2019-01-25T22:13:07.117Z,36.45
2019-01-25T22:15:36.152Z,41.42
2019-01-25T22:18:05.413Z,42.48
2019-01-25T22:20:34.386Z,35.75
2019-01-25T22:23:03.477Z,35.92
2019-01-25T22:25:32.451Z,35.05
2019-01-25T22:28:01.489Z,37.80
2019-01-25T22:30:30.602Z,43.00
2019-01-25T22:32:59.636Z,35.25
2019-01-25T22:35:28.827Z,39.92
2019-01-25T22:37:57.641Z,37.45
2019-01-25T22:40:28.427Z,39.95
2019-01-25T22:42:57.713Z,37.05
2019-01-25T22:45:28.287Z,35.95
2019-01-25T22:47:57.924Z,35.15
2019-01-25T22:50:31.397Z,37.42
2019-01-25T22:53:00.469Z,38.75
2019-01-25T22:55:29.512Z,35.20
2019-01-25T22:57:58.505Z,37.42
2019-01-25T23:00:47.208Z,40.40
2019-01-25T23:03:17.178Z,37.55
2019-01-25T23:06:31.768Z,36.80
2019-01-25T23:09:04.696Z,38.60
2019-01-25T23:11:33.614Z,39.18
2019-01-25T23:14:02.579Z,43.70
2019-01-25T23:16:31.598Z,42.58
2019-01-25T23:19:00.562Z,45.30
2019-01-25T23:21:29.574Z,43.65
2019-01-25T23:23:58.525Z,47.98
2019-01-25T23:26:27.483Z,45.05
2019-01-25T23:28:56.429Z,42.05
2019-01-25T23:31:25.532Z,54.77
2019-01-25T23:33:54.635Z,44.13
2019-01-25T23:36:23.601Z,50.15
2019-01-25T23:38:53.043Z,52.80
2019-01-25T23:41:21.989Z,50.55
2019-01-25T23:43:51.149Z,47.30
2019-01-25T23:46:20.221Z,51.60
2019-01-25T23:48:49.143Z,51.15
2019-01-25T23:51:22.949Z,47.60
2019-01-25T23:53:48.850Z,54.93
2019-01-25T23:56:17.847Z,52.27
2019-01-25T23:58:46.888Z,49.18
